Time;durP1;ratioP1;P1;durP2;ratioP2;P2;SDS_P1;SDS_P2;PMS_P1;PMS_P2;Temp;Humidity;BMP_temperature;BMP_pressure;BME280_temperature;BME280_humidity;BME280_pressure;Samples;Min_cycle;Max_cycle;Signal;HPM_P1;HPM_P2
2021/06/29 03:44:24;;;;;;;4.20;3.90;;;16.90;99.90;;;;;;5184963;22;20521;-71
2021/06/29 03:46:51;;;;;;;5.40;5.00;;;16.90;99.90;;;;;;4988633;28;20485;-74
2021/06/29 03:49:18;;;;;;;4.97;4.20;;;16.90;99.90;;;;;;4988551;28;20466;-73
2021/06/29 03:51:45;;;;;;;4.93;4.40;;;16.90;99.90;;;;;;4990061;28;20466;-74
2021/06/29 03:54:12;;;;;;;6.63;4.07;;;17.00;99.90;;;;;;4989881;28;20481;-74
2021/06/29 03:56:39;;;;;;;4.70;4.40;;;17.00;99.90;;;;;;4989441;28;20465;-74
2021/06/29 03:59:07;;;;;;;4.57;4.17;;;17.00;99.90;;;;;;4993108;28;20489;-74
2021/06/29 04:01:36;;;;;;;4.83;4.43;;;17.00;99.90;;;;;;4993914;28;20982;-74
2021/06/29 04:04:05;;;;;;;4.53;4.13;;;17.00;99.90;;;;;;4993310;28;20486;-74
2021/06/29 04:06:34;;;;;;;4.50;4.10;;;17.00;99.90;;;;;;4993224;28;20486;-73
2021/06/29 04:09:01;;;;;;;4.20;3.87;;;17.00;99.90;;;;;;4994071;28;20565;-74
2021/06/29 04:11:29;;;;;;;6.43;4.70;;;17.00;99.90;;;;;;4993973;28;20465;-73
2021/06/29 04:13:57;;;;;;;4.90;4.40;;;17.00;99.90;;;;;;4993912;28;20485;-73
2021/06/29 04:16:24;;;;;;;5.80;4.33;;;17.00;99.90;;;;;;4993846;28;20457;-74
2021/06/29 04:18:52;;;;;;;5.47;4.60;;;17.00;99.90;;;;;;4993596;28;20466;-73
2021/06/29 04:21:18;;;;;;;8.13;5.30;;;17.00;99.90;;;;;;4992770;28;20888;-74
2021/06/29 04:23:45;;;;;;;5.37;4.33;;;16.90;99.90;;;;;;4993349;28;20482;-73
2021/06/29 04:26:14;;;;;;;6.50;4.83;;;16.90;99.90;;;;;;4993100;28;20496;-73
2021/06/29 04:28:40;;;;;;;6.97;5.00;;;16.90;99.90;;;;;;4993403;28;20481;-73
2021/06/29 04:31:07;;;;;;;5.83;4.23;;;16.90;99.90;;;;;;4992839;28;20468;-72
2021/06/29 04:33:34;;;;;;;4.20;3.87;;;16.90;99.90;;;;;;4993615;28;20490;-73
2021/06/29 04:36:03;;;;;;;4.27;3.90;;;16.90;99.90;;;;;;4993500;28;20874;-73
2021/06/29 04:38:30;;;;;;;8.83;4.87;;;16.80;99.90;;;;;;4993613;28;20953;-73
2021/06/29 04:40:56;;;;;;;4.70;4.27;;;16.70;99.90;;;;;;4993357;28;20469;-72
2021/06/29 04:43:23;;;;;;;4.93;4.53;;;16.60;99.90;;;;;;4993020;28;20538;-72
2021/06/29 04:45:50;;;;;;;4.60;4.20;;;16.50;99.90;;;;;;4993466;28;20493;-72
2021/06/29 04:48:17;;;;;;;5.67;4.17;;;16.40;99.90;;;;;;4992988;28;20839;-72
2021/06/29 04:50:45;;;;;;;4.67;4.27;;;16.40;99.90;;;;;;4992266;28;20473;-72
2021/06/29 04:53:13;;;;;;;4.90;4.50;;;16.50;99.90;;;;;;4992486;28;20496;-72
2021/06/29 04:55:40;;;;;;;5.13;4.23;;;16.50;99.90;;;;;;4992676;28;20458;-75
2021/06/29 04:58:06;;;;;;;4.40;4.10;;;16.60;99.90;;;;;;4993103;28;20469;-74
2021/06/29 05:00:33;;;;;;;6.70;3.90;;;16.60;99.90;;;;;;4992511;28;20450;-75
2021/06/29 05:03:03;;;;;;;4.80;3.67;;;16.60;99.90;;;;;;4993123;28;20478;-75
2021/06/29 05:05:30;;;;;;;4.57;4.10;;;16.70;99.90;;;;;;4992443;28;20909;-74
2021/06/29 05:07:56;;;;;;;4.43;4.03;;;16.70;99.90;;;;;;4989789;28;20458;-74
2021/06/29 05:10:24;;;;;;;4.17;3.77;;;16.80;99.90;;;;;;4989449;28;20465;-74
2021/06/29 05:12:51;;;;;;;4.30;4.00;;;16.80;99.90;;;;;;4989951;28;20866;-75
2021/06/29 05:15:18;;;;;;;4.23;3.83;;;16.80;99.90;;;;;;4992153;28;20465;-75
2021/06/29 05:17:45;;;;;;;4.43;3.93;;;16.90;99.90;;;;;;4992762;28;20466;-75
2021/06/29 05:20:13;;;;;;;4.90;4.40;;;16.80;99.90;;;;;;4992093;28;20953;-75
2021/06/29 05:22:40;;;;;;;4.50;4.10;;;16.90;99.90;;;;;;4992711;28;20553;-75
2021/06/29 05:25:08;;;;;;;4.27;3.90;;;16.90;99.90;;;;;;4992511;28;20466;-75
2021/06/29 05:27:39;;;;;;;4.00;3.70;;;16.90;99.90;;;;;;4992445;28;20502;-75
2021/06/29 05:30:07;;;;;;;4.27;3.47;;;16.90;99.90;;;;;;4991917;28;20462;-74
2021/06/29 05:32:34;;;;;;;4.53;4.13;;;16.90;99.90;;;;;;4992304;28;20466;-75
2021/06/29 05:35:00;;;;;;;4.53;4.13;;;16.90;99.90;;;;;;4992368;28;20877;-75
2021/06/29 05:37:27;;;;;;;4.53;4.00;;;16.90;99.90;;;;;;4992510;28;20469;-74
2021/06/29 05:39:54;;;;;;;3.83;3.37;;;16.90;99.90;;;;;;4991791;28;20489;-75
2021/06/29 05:42:21;;;;;;;4.30;3.90;;;17.00;99.90;;;;;;4992428;28;20470;-75
2021/06/29 05:44:49;;;;;;;4.13;3.80;;;17.00;99.90;;;;;;4992142;28;20478;-74
2021/06/29 05:47:20;;;;;;;4.30;3.90;;;17.00;99.90;;;;;;4992284;28;20490;-75
2021/06/29 05:49:47;;;;;;;4.00;3.70;;;17.00;99.90;;;;;;4992210;28;20462;-75
2021/06/29 05:52:13;;;;;;;4.50;4.10;;;17.00;99.90;;;;;;4991851;28;20469;-75
2021/06/29 05:54:41;;;;;;;4.37;4.00;;;17.10;99.90;;;;;;4991986;28;21008;-75
2021/06/29 05:57:08;;;;;;;4.70;4.30;;;17.10;99.90;;;;;;4991922;28;20466;-75
2021/06/29 05:59:35;;;;;;;4.53;4.13;;;17.10;99.90;;;;;;4991624;28;20462;-75
2021/06/29 06:02:03;;;;;;;4.73;4.33;;;17.10;99.90;;;;;;4992063;28;20477;-75
2021/06/29 06:04:30;;;;;;;3.80;3.50;;;17.20;99.90;;;;;;4991748;28;20482;-75
2021/06/29 06:06:56;;;;;;;4.40;4.00;;;17.20;99.90;;;;;;4992007;28;20849;-75
2021/06/29 06:09:23;;;;;;;4.20;3.60;;;17.20;99.90;;;;;;4991271;28;20466;-74
2021/06/29 06:11:50;;;;;;;3.73;3.43;;;17.30;99.90;;;;;;4991730;28;20466;-75
2021/06/29 06:14:16;;;;;;;3.73;3.43;;;17.30;99.90;;;;;;4991611;28;20552;-75
2021/06/29 06:16:43;;;;;;;3.80;3.40;;;17.30;99.90;;;;;;4992914;28;20464;-71
2021/06/29 06:19:11;;;;;;;3.60;3.30;;;17.40;99.90;;;;;;5008915;28;20469;-72
2021/06/29 06:21:38;;;;;;;4.30;4.00;;;17.50;99.90;;;;;;5008931;28;20465;-72
2021/06/29 06:24:10;;;;;;;4.07;3.77;;;17.40;99.90;;;;;;5012557;28;20898;-73
2021/06/29 06:26:56;;;;;;;4.07;3.63;;;17.50;99.90;;;;;;5012969;28;20517;-73
2021/06/29 06:29:28;;;;;;;4.90;4.37;;;17.60;99.90;;;;;;5012024;28;20457;-73
2021/06/29 06:34:53;;;;;;;3.93;3.60;;;17.70;99.90;;;;;;5012253;28;20505;-73
2021/06/29 06:37:44;;;;;;;4.03;3.63;;;17.70;99.90;;;;;;5014478;28;20467;-72
2021/06/29 06:40:22;;;;;;;3.80;3.43;;;17.80;99.90;;;;;;5013592;28;20461;-73
2021/06/29 06:43:00;;;;;;;3.63;3.33;;;17.80;99.90;;;;;;5013944;28;20477;-72
2021/06/29 06:45:31;;;;;;;3.90;3.30;;;17.70;99.90;;;;;;5013242;28;20457;-73
2021/06/29 06:48:01;;;;;;;3.47;3.27;;;17.80;99.90;;;;;;5014680;28;20501;-73
2021/06/29 06:50:30;;;;;;;4.40;3.60;;;17.90;99.90;;;;;;5014017;28;20457;-72
2021/06/29 06:53:08;;;;;;;5.87;3.73;;;17.90;99.90;;;;;;5013120;28;20506;-73
2021/06/29 06:55:39;;;;;;;3.50;3.20;;;17.90;99.90;;;;;;5015053;28;20449;-72
2021/06/29 06:58:09;;;;;;;3.73;3.43;;;18.00;99.90;;;;;;5014017;28;20461;-72
2021/06/29 07:00:43;;;;;;;3.07;2.87;;;18.00;99.90;;;;;;4994163;28;20462;-72
2021/06/29 07:03:18;;;;;;;3.80;3.40;;;18.10;99.90;;;;;;4993378;28;20816;-71
2021/06/29 07:05:55;;;;;;;3.67;3.37;;;18.10;99.90;;;;;;4994715;28;20469;-72
2021/06/29 07:08:28;;;;;;;3.10;2.90;;;18.20;99.90;;;;;;4993524;28;20464;-72
2021/06/29 07:10:59;;;;;;;3.10;2.80;;;18.20;99.90;;;;;;4989257;28;20825;-71
2021/06/29 07:13:27;;;;;;;3.10;2.70;;;18.20;99.90;;;;;;4994832;28;20486;-72
2021/06/29 07:15:55;;;;;;;2.90;2.70;;;18.30;99.90;;;;;;4994846;28;20975;-72
2021/06/29 07:18:25;;;;;;;3.40;3.10;;;18.40;99.90;;;;;;4993243;28;20466;-71
2021/06/29 07:20:57;;;;;;;3.20;2.87;;;18.40;99.90;;;;;;4991461;28;20473;-72
2021/06/29 07:23:40;;;;;;;2.40;2.20;;;18.50;99.90;;;;;;4990942;28;21028;-72
2021/06/29 07:26:11;;;;;;;4.47;2.50;;;18.60;99.90;;;;;;4991614;28;20466;-72
2021/06/29 07:28:44;;;;;;;2.93;2.30;;;18.60;99.90;;;;;;4992277;28;20470;-73
2021/06/29 07:31:18;;;;;;;4.50;2.67;;;18.70;99.90;;;;;;4991643;28;20522;-77
2021/06/29 07:33:49;;;;;;;2.90;2.70;;;18.80;99.90;;;;;;4990813;28;20472;-71
2021/06/29 07:36:21;;;;;;;2.97;2.77;;;18.80;99.90;;;;;;4988608;28;20269;-72
2021/06/29 07:38:56;;;;;;;2.77;2.53;;;18.80;99.90;;;;;;4989448;28;20493;-74
2021/06/29 07:41:24;;;;;;;2.50;2.30;;;18.90;99.90;;;;;;4988581;28;20477;-73
2021/06/29 07:43:56;;;;;;;3.40;3.00;;;18.90;99.90;;;;;;4984779;28;20493;-71
2021/06/29 07:46:25;;;;;;;3.00;2.40;;;19.10;99.90;;;;;;4988756;28;20486;-72
2021/06/29 07:48:55;;;;;;;2.93;2.63;;;19.10;99.90;;;;;;4984127;28;20525;-72
2021/06/29 07:51:34;;;;;;;2.60;2.40;;;19.10;99.90;;;;;;4985215;28;20470;-73
2021/06/29 07:54:09;;;;;;;2.60;2.40;;;19.20;99.90;;;;;;4988678;28;20536;-73
2021/06/29 07:56:41;;;;;;;2.60;2.20;;;19.20;99.90;;;;;;4990279;28;20938;-73
2021/06/29 07:59:13;;;;;;;3.03;2.17;;;19.20;99.90;;;;;;4988616;28;20520;-72
2021/06/29 08:01:43;;;;;;;3.83;2.43;;;19.30;99.90;;;;;;4990178;28;20462;-72
2021/06/29 08:04:19;;;;;;;2.80;2.50;;;19.20;99.90;;;;;;4991769;28;20526;-73
2021/06/29 08:07:29;;;;;;;2.30;2.10;;;19.30;99.90;;;;;;4989137;28;20494;-75
2021/06/29 08:10:03;;;;;;;2.77;2.57;;;19.40;99.90;;;;;;4989689;28;20517;-74
2021/06/29 08:12:53;;;;;;;2.60;2.40;;;19.50;99.90;;;;;;4990849;28;20469;-74
2021/06/29 08:15:26;;;;;;;2.33;2.13;;;19.50;99.90;;;;;;4993445;28;20496;-76
2021/06/29 08:18:04;;;;;;;3.30;2.20;;;19.60;99.90;;;;;;4990632;28;20561;-74
2021/06/29 08:21:04;;;;;;;;;;;;;;;;;;;;;
2021/06/29 08:26:43;;;;;;;2.53;2.33;;;19.70;99.90;;;;;;4985063;28;20517;-74
2021/06/29 08:29:37;;;;;;;;;;;;;;;;;;;;;
2021/06/29 08:32:24;;;;;;;2.30;2.10;;;19.60;99.90;;;;;;4991012;28;20949;-74
2021/06/29 08:34:53;;;;;;;2.40;2.07;;;19.60;99.90;;;;;;4994123;28;20469;-74
2021/06/29 08:37:40;;;;;;;2.43;2.23;;;19.60;99.90;;;;;;4991764;28;20462;-74
2021/06/29 08:40:30;;;;;;;2.80;2.20;;;19.60;99.90;;;;;;4992932;28;20942;-74
2021/06/29 08:43:02;;;;;;;2.07;1.87;;;19.70;99.90;;;;;;4990099;28;21009;-74
2021/06/29 08:51:59;;;;;;;2.10;2.00;;;20.00;99.90;;;;;;4980208;28;20465;-75
2021/06/29 08:54:38;;;;;;;2.40;2.20;;;20.20;99.90;;;;;;4993639;28;20489;-74
2021/06/29 08:57:11;;;;;;;2.23;2.03;;;20.30;99.90;;;;;;5003803;28;20468;-75
2021/06/29 09:00:10;;;;;;;2.33;1.90;;;20.30;99.90;;;;;;5012572;28;20453;-74
2021/06/29 09:02:57;;;;;;;2.07;1.87;;;20.40;99.90;;;;;;5014040;28;20476;-74
2021/06/29 09:05:38;;;;;;;2.07;1.97;;;20.50;99.90;;;;;;5015337;28;20465;-74
2021/06/29 09:08:25;;;;;;;2.03;1.93;;;20.60;99.90;;;;;;5016682;28;20519;-74
2021/06/29 09:11:16;;;;;;;2.60;2.30;;;20.60;99.90;;;;;;5018607;28;20892;-74
2021/06/29 09:14:27;;;;;;;2.37;2.10;;;20.70;99.90;;;;;;5021012;28;20500;-74
2021/06/29 09:17:32;;;;;;;2.10;1.90;;;20.80;99.90;;;;;;5020974;28;21055;-75
2021/06/29 09:23:50;;;;;;;1.93;1.70;;;20.90;99.90;;;;;;5103076;27;20563;-75
2021/06/29 09:27:03;;;;;;;2.37;2.17;;;21.00;99.90;;;;;;5053129;28;20466;-75
2021/06/29 09:29:45;;;;;;;2.13;2.03;;;21.10;99.90;;;;;;5006825;28;20504;-75
2021/06/29 09:32:40;;;;;;;2.20;2.00;;;21.20;99.90;;;;;;5022610;28;21022;-75
2021/06/29 09:35:11;;;;;;;2.10;2.00;;;21.30;99.90;;;;;;5057335;28;20462;-75
2021/06/29 09:38:19;;;;;;;2.20;2.00;;;21.40;99.90;;;;;;5068672;28;20474;-75
2021/06/29 09:41:04;;;;;;;1.80;1.70;;;21.60;99.90;;;;;;5068440;28;20466;-74
2021/06/29 09:43:43;;;;;;;1.80;1.70;;;21.70;99.90;;;;;;5068836;28;20483;-74
2021/06/29 09:46:30;;;;;;;2.73;1.90;;;21.80;99.90;;;;;;5068315;28;20459;-73
2021/06/29 09:49:13;;;;;;;2.13;1.93;;;21.80;99.90;;;;;;5069597;28;21055;-74
2021/06/29 09:51:52;;;;;;;2.00;1.80;;;21.90;99.90;;;;;;5069842;28;20459;-75
2021/06/29 09:54:23;;;;;;;1.90;1.80;;;21.90;99.90;;;;;;5059800;28;20574;-75
2021/06/29 09:56:52;;;;;;;2.27;2.07;;;22.00;99.90;;;;;;5065281;28;20463;-74
2021/06/29 09:59:24;;;;;;;2.37;2.10;;;22.00;99.90;;;;;;5064117;28;20463;-75
2021/06/29 10:02:04;;;;;;;4.43;1.90;;;22.10;99.90;;;;;;5064454;28;20573;-75
2021/06/29 10:04:32;;;;;;;2.17;1.90;;;22.20;99.90;;;;;;5065263;28;20515;-74
2021/06/29 10:07:13;;;;;;;2.73;2.47;;;22.30;99.90;;;;;;5064750;28;20468;-74
2021/06/29 10:09:42;;;;;;;2.50;1.80;;;22.40;99.90;;;;;;5064266;28;21001;-75
2021/06/29 10:12:11;;;;;;;2.90;2.33;;;22.30;99.90;;;;;;5064931;28;20462;-75
2021/06/29 10:14:39;;;;;;;2.23;2.03;;;22.40;99.90;;;;;;5063615;28;20489;-74
2021/06/29 10:17:10;;;;;;;2.87;2.37;;;22.60;99.90;;;;;;5064484;28;20958;-75
2021/06/29 10:19:47;;;;;;;2.40;2.20;;;22.70;99.90;;;;;;5062278;28;20467;-75
2021/06/29 10:22:17;;;;;;;1.90;1.80;;;22.80;99.90;;;;;;5060575;28;20871;-75
2021/06/29 10:24:44;;;;;;;2.10;1.87;;;22.70;99.90;;;;;;5063017;28;20500;-74
2021/06/29 10:27:12;;;;;;;2.07;1.97;;;22.70;99.90;;;;;;5062498;28;20506;-74
2021/06/29 10:29:39;;;;;;;3.27;2.20;;;22.60;99.90;;;;;;5061539;28;20455;-74
2021/06/29 10:32:09;;;;;;;2.63;2.03;;;22.50;99.90;;;;;;5062468;28;20504;-74
2021/06/29 10:34:36;;;;;;;1.97;1.73;;;22.50;99.90;;;;;;5043989;28;21068;-74
2021/06/29 10:37:04;;;;;;;2.10;2.00;;;22.60;99.90;;;;;;5047397;28;20917;-75
2021/06/29 10:39:33;;;;;;;2.40;1.97;;;22.80;99.90;;;;;;5047078;28;20462;-75
2021/06/29 10:42:01;;;;;;;1.93;1.73;;;23.00;99.90;;;;;;5047276;28;20487;-75
2021/06/29 10:44:35;;;;;;;2.13;2.00;;;23.10;99.90;;;;;;5046520;28;20487;-74
2021/06/29 10:47:02;;;;;;;2.27;2.00;;;23.30;99.90;;;;;;5048735;28;20463;-75
2021/06/29 10:52:38;;;;;;;2.23;2.03;;;23.50;99.90;;;;;;5045578;28;20462;-75
2021/06/29 10:55:08;;;;;;;3.77;2.30;;;23.60;99.90;;;;;;5047367;28;21012;-74
2021/06/29 10:57:42;;;;;;;2.00;1.80;;;23.70;99.90;;;;;;5045183;28;20466;-75
2021/06/29 11:00:32;;;;;;;1.90;1.80;;;23.70;99.90;;;;;;5047863;28;20462;-75
2021/06/29 11:03:07;;;;;;;2.10;1.70;;;23.80;99.90;;;;;;5046109;28;20487;-76
2021/06/29 11:05:36;;;;;;;3.13;1.97;;;23.80;99.90;;;;;;5039629;28;21146;-75
2021/06/29 11:08:11;;;;;;;2.23;1.83;;;23.90;99.90;;;;;;5047950;28;20865;-76
2021/06/29 11:10:39;;;;;;;2.00;1.80;;;23.90;99.90;;;;;;5045955;28;20466;-75
2021/06/29 11:13:08;;;;;;;2.10;1.90;;;24.00;99.90;;;;;;5048678;28;20479;-75
2021/06/29 11:15:51;;;;;;;1.90;1.70;;;24.10;99.90;;;;;;5044737;28;20462;-76
2021/06/29 11:18:21;;;;;;;2.00;1.80;;;24.20;99.90;;;;;;5028622;28;20457;-75
2021/06/29 11:20:49;;;;;;;3.53;2.00;;;24.30;99.90;;;;;;5026640;28;20541;-75
2021/06/29 11:23:31;;;;;;;2.17;1.97;;;24.30;99.90;;;;;;5031396;28;20505;-75
2021/06/29 11:26:00;;;;;;;2.10;1.90;;;24.40;99.90;;;;;;5044858;28;20473;-76
2021/06/29 11:28:31;;;;;;;2.20;2.00;;;24.40;99.90;;;;;;5046125;28;20538;-75
2021/06/29 11:31:05;;;;;;;1.93;1.83;;;24.30;99.90;;;;;;5044428;28;20458;-76
2021/06/29 11:33:49;;;;;;;2.27;1.40;;;24.20;99.90;;;;;;5045931;28;20480;-75
2021/06/29 11:36:42;;;;;;;2.17;1.73;;;24.00;99.90;;;;;;5044491;28;20467;-75
2021/06/29 11:39:32;;;;;;;2.87;2.57;;;23.90;99.90;;;;;;5046883;28;20463;-75
2021/06/29 11:42:01;;;;;;;2.40;2.10;;;23.90;99.90;;;;;;5046099;28;20546;-75
2021/06/29 11:44:41;;;;;;;3.40;1.90;;;23.90;99.90;;;;;;5046424;28;20483;-76
2021/06/29 11:47:13;;;;;;;2.00;1.90;;;23.80;99.90;;;;;;5044593;28;20466;-76
2021/06/29 11:49:46;;;;;;;2.10;1.80;;;23.70;99.90;;;;;;5046423;28;20467;-75
2021/06/29 11:52:28;;;;;;;2.00;1.90;;;23.60;99.90;;;;;;5047460;28;20463;-75
2021/06/29 11:54:58;;;;;;;2.30;1.87;;;23.60;99.90;;;;;;5048193;28;20470;-74
2021/06/29 11:57:27;;;;;;;2.93;2.27;;;23.50;99.90;;;;;;5047738;28;20857;-75
2021/06/29 11:59:58;;;;;;;2.10;2.00;;;23.60;99.90;;;;;;5046742;28;20467;-75
2021/06/29 12:02:28;;;;;;;3.37;2.07;;;23.90;99.90;;;;;;5047795;28;20487;-75
2021/06/29 12:05:00;;;;;;;2.33;1.97;;;24.00;99.90;;;;;;5047658;28;20471;-75
2021/06/29 12:07:32;;;;;;;2.03;1.63;;;24.20;99.90;;;;;;5047046;28;20463;-75
2021/06/29 12:09:59;;;;;;;2.20;2.00;;;24.10;99.90;;;;;;5047378;28;20564;-75
2021/06/29 12:12:28;;;;;;;3.17;2.30;;;24.10;99.90;;;;;;5046195;28;20455;-75
2021/06/29 12:15:13;;;;;;;2.50;2.30;;;24.10;99.90;;;;;;5047173;28;20474;-75
2021/06/29 12:17:47;;;;;;;5.53;2.70;;;24.30;99.90;;;;;;5047064;28;20798;-75
2021/06/29 12:20:17;;;;;;;2.63;1.93;;;24.40;99.90;;;;;;5047343;28;20807;-75
2021/06/29 12:22:45;;;;;;;7.20;2.50;;;24.50;99.90;;;;;;5047063;28;20487;-75
2021/06/29 12:25:19;;;;;;;2.20;2.00;;;24.40;99.90;;;;;;5047290;28;20939;-75
2021/06/29 12:27:47;;;;;;;2.40;2.20;;;24.20;99.90;;;;;;5047446;28;20474;-75
2021/06/29 12:30:39;;;;;;;2.60;2.40;;;24.10;99.90;;;;;;5046533;28;20555;-75
2021/06/29 12:33:23;;;;;;;2.60;2.40;;;23.90;99.90;;;;;;5041560;28;20480;-75
2021/06/29 12:35:53;;;;;;;2.20;2.10;;;23.70;99.90;;;;;;5043529;28;20463;-75
2021/06/29 12:38:22;;;;;;;5.30;2.50;;;23.60;99.90;;;;;;5040371;28;20478;-75
2021/06/29 12:40:52;;;;;;;2.43;2.23;;;23.50;99.90;;;;;;5046528;28;20466;-75
2021/06/29 12:43:21;;;;;;;3.70;2.20;;;23.30;99.90;;;;;;5045687;28;20677;-74
2021/06/29 12:45:48;;;;;;;2.70;2.50;;;23.20;99.90;;;;;;5047444;28;20530;-75
2021/06/29 12:48:16;;;;;;;2.70;2.50;;;23.10;99.90;;;;;;5046618;28;20470;-75
2021/06/29 12:50:58;;;;;;;2.17;1.97;;;22.90;99.90;;;;;;5046188;28;20459;-74
2021/06/29 12:53:25;;;;;;;2.70;1.90;;;22.70;99.90;;;;;;5046965;28;20484;-74
2021/06/29 12:55:52;;;;;;;5.90;1.53;;;22.30;99.90;;;;;;5049775;28;20455;-72
2021/06/29 12:58:19;;;;;;;9.17;2.70;;;21.60;99.90;;;;;;5056108;22;20523;-67
2021/06/29 13:00:52;;;;;;;7.60;2.37;;;20.50;99.90;;;;;;5045250;28;20521;-67
2021/06/29 13:03:23;;;;;;;2.03;1.60;;;19.40;99.90;;;;;;5021975;28;20859;-68
2021/06/29 13:06:11;;;;;;;3.00;1.40;;;18.50;99.90;;;;;;5027355;28;20635;-68
2021/06/29 13:08:39;;;;;;;3.10;1.90;;;17.70;99.90;;;;;;5027739;28;20571;-67
2021/06/29 13:11:14;;;;;;;1.87;1.30;;;17.20;99.90;;;;;;5037375;28;21434;-68
2021/06/29 13:13:43;;;;;;;3.13;1.40;;;16.90;99.90;;;;;;5046045;28;20487;-68
2021/06/29 13:16:22;;;;;;;1.50;1.40;;;16.60;99.90;;;;;;5047166;28;20553;-68
2021/06/29 13:18:49;;;;;;;2.90;1.40;;;16.30;99.90;;;;;;5046962;28;20576;-67
2021/06/29 13:21:20;;;;;;;1.60;1.23;;;16.20;99.90;;;;;;5046052;28;21047;-68
2021/06/29 13:23:58;;;;;;;1.47;0.97;;;16.10;99.90;;;;;;5046580;28;20483;-68
2021/06/29 13:26:25;;;;;;;2.20;1.10;;;16.00;99.90;;;;;;5046655;28;20817;-69
2021/06/29 13:28:53;;;;;;;3.27;1.60;;;15.80;99.90;;;;;;5046354;28;20463;-69
2021/06/29 13:31:21;;;;;;;2.17;1.50;;;15.80;99.90;;;;;;5046334;28;20459;-68
2021/06/29 13:33:48;;;;;;;1.50;1.30;;;15.80;99.90;;;;;;5047359;28;20471;-68
2021/06/29 13:36:15;;;;;;;2.27;1.10;;;15.80;99.90;;;;;;5046334;28;20559;-67
2021/06/29 13:38:54;;;;;;;1.37;1.27;;;15.80;99.90;;;;;;5047720;28;20463;-68
2021/06/29 13:41:33;;;;;;;1.40;1.07;;;15.70;99.90;;;;;;5046770;28;20463;-68
2021/06/29 13:44:13;;;;;;;1.70;1.30;;;15.70;99.90;;;;;;5026076;28;20999;-68
2021/06/29 13:46:40;;;;;;;1.83;1.23;;;15.70;99.90;;;;;;5026115;28;20570;-68
2021/06/29 13:49:15;;;;;;;2.23;1.20;;;15.60;99.90;;;;;;5026235;28;20571;-67
2021/06/29 13:51:43;;;;;;;1.83;1.47;;;15.70;99.90;;;;;;5026899;28;20853;-68
2021/06/29 13:54:20;;;;;;;1.50;1.40;;;15.70;99.90;;;;;;5026908;28;20556;-67
2021/06/29 13:56:49;;;;;;;2.10;1.67;;;15.80;99.90;;;;;;5026395;28;20468;-67
2021/06/29 13:59:30;;;;;;;6.03;1.47;;;15.80;99.90;;;;;;5026015;28;20476;-68
2021/06/29 14:01:57;;;;;;;2.23;1.20;;;15.80;99.90;;;;;;5026973;28;20526;-68
2021/06/29 14:04:24;;;;;;;1.53;1.30;;;15.80;99.90;;;;;;5026015;28;20498;-68
2021/06/29 14:07:07;;;;;;;1.40;1.30;;;15.70;99.90;;;;;;5026948;28;20483;-68
2021/06/29 14:09:37;;;;;;;1.40;1.30;;;15.70;99.90;;;;;;5029257;28;20467;-68
2021/06/29 14:12:05;;;;;;;1.43;1.20;;;15.70;99.90;;;;;;5030310;28;20835;-68
2021/06/29 14:14:32;;;;;;;1.97;1.50;;;15.70;99.90;;;;;;5030393;28;20494;-68
2021/06/29 14:17:00;;;;;;;4.53;1.70;;;15.70;99.90;;;;;;5030506;28;20551;-67
2021/06/29 14:19:28;;;;;;;2.23;1.50;;;15.80;99.90;;;;;;5029545;28;20522;-68
2021/06/29 14:21:55;;;;;;;2.03;1.83;;;15.80;99.90;;;;;;5030430;28;20452;-68
2021/06/29 14:24:22;;;;;;;2.07;1.60;;;15.80;99.90;;;;;;5030251;28;20498;-68
2021/06/29 14:26:51;;;;;;;1.60;1.33;;;15.80;99.90;;;;;;5029869;28;20468;-67
2021/06/29 14:29:18;;;;;;;2.13;1.80;;;15.70;99.90;;;;;;5034067;28;20463;-67
2021/06/29 14:31:45;;;;;;;2.80;1.60;;;15.70;99.90;;;;;;5049279;28;20461;-68
2021/06/29 14:34:12;;;;;;;2.77;1.80;;;15.80;99.90;;;;;;5049237;28;20499;-68
2021/06/29 14:36:39;;;;;;;2.87;1.80;;;15.80;99.90;;;;;;5049496;28;20481;-68
2021/06/29 14:39:07;;;;;;;4.23;1.70;;;15.80;99.90;;;;;;5048880;28;20491;-67
2021/06/29 14:41:33;;;;;;;5.50;1.70;;;15.70;99.90;;;;;;5049160;28;20535;-67
2021/06/29 14:44:01;;;;;;;2.60;1.47;;;15.70;99.90;;;;;;5048693;28;20479;-67
2021/06/29 14:46:29;;;;;;;4.53;2.37;;;15.70;99.90;;;;;;5049569;28;20856;-68
2021/06/29 14:48:55;;;;;;;1.87;1.40;;;15.70;99.90;;;;;;5048177;28;20495;-67
2021/06/29 14:51:25;;;;;;;2.27;1.53;;;15.70;99.90;;;;;;5048980;28;20935;-68
2021/06/29 14:53:52;;;;;;;1.80;1.53;;;15.70;99.90;;;;;;5048145;28;20464;-67
2021/06/29 14:56:19;;;;;;;4.57;1.63;;;15.70;99.90;;;;;;5049023;28;20840;-67
2021/06/29 14:58:46;;;;;;;5.30;1.60;;;15.70;99.90;;;;;;5048909;28;20518;-68
2021/06/29 15:01:16;;;;;;;1.70;1.50;;;15.70;99.90;;;;;;5048085;28;20466;-67
2021/06/29 15:03:43;;;;;;;2.20;1.57;;;15.70;99.90;;;;;;5045871;28;20499;-67
2021/06/29 15:06:09;;;;;;;3.73;1.97;;;15.70;99.90;;;;;;5048476;28;20467;-67
2021/06/29 15:08:36;;;;;;;2.10;1.70;;;15.60;99.90;;;;;;5048910;28;20467;-67
2021/06/29 15:11:03;;;;;;;2.20;2.00;;;15.70;99.90;;;;;;5047832;28;20853;-67
2021/06/29 15:13:30;;;;;;;1.87;1.40;;;15.70;99.90;;;;;;5048658;28;20471;-68
2021/06/29 15:15:57;;;;;;;2.83;2.00;;;15.70;99.90;;;;;;5048363;28;20459;-68
2021/06/29 15:18:24;;;;;;;2.60;1.80;;;15.80;99.90;;;;;;5048046;28;20558;-68
2021/06/29 15:20:51;;;;;;;1.60;1.50;;;15.80;99.90;;;;;;5048188;28;20467;-68
2021/06/29 15:23:19;;;;;;;1.80;1.70;;;15.80;99.90;;;;;;5048466;28;20500;-68
2021/06/29 15:25:46;;;;;;;2.30;1.50;;;15.70;99.90;;;;;;5048386;28;20466;-68
2021/06/29 15:28:12;;;;;;;1.80;1.63;;;15.60;99.90;;;;;;5048429;28;20463;-68
2021/06/29 15:30:40;;;;;;;2.30;1.80;;;15.70;99.90;;;;;;5047627;28;20969;-68
2021/06/29 15:33:07;;;;;;;1.70;1.57;;;15.70;99.90;;;;;;5046549;28;20471;-68
2021/06/29 15:35:35;;;;;;;2.33;1.73;;;15.80;99.90;;;;;;5047542;28;20451;-68
2021/06/29 15:38:04;;;;;;;1.60;1.50;;;15.80;99.90;;;;;;5047009;28;20451;-68
2021/06/29 15:40:32;;;;;;;1.33;1.23;;;15.90;99.90;;;;;;5046253;28;20451;-68
2021/06/29 15:43:00;;;;;;;1.60;1.40;;;15.90;99.90;;;;;;5046717;28;20486;-68
2021/06/29 15:45:28;;;;;;;2.10;1.40;;;16.00;99.90;;;;;;5047596;28;20513;-68
2021/06/29 15:47:55;;;;;;;3.00;1.70;;;16.10;99.90;;;;;;5046615;28;20459;-68
2021/06/29 15:50:23;;;;;;;2.23;1.53;;;16.20;99.90;;;;;;5047112;28;21008;-68
2021/06/29 15:52:52;;;;;;;3.10;1.83;;;16.20;99.90;;;;;;5041129;28;20479;-69
2021/06/29 15:55:22;;;;;;;2.47;1.70;;;16.30;99.90;;;;;;5044378;28;20458;-69
2021/06/29 15:57:50;;;;;;;2.00;1.80;;;16.30;99.90;;;;;;5044611;28;20467;-69
2021/06/29 16:00:18;;;;;;;3.53;1.73;;;16.50;99.90;;;;;;5043473;28;21238;-67
2021/06/29 16:02:47;;;;;;;1.60;1.43;;;16.70;99.90;;;;;;5041673;28;20479;-68
2021/06/29 16:05:14;;;;;;;1.93;1.50;;;16.80;99.90;;;;;;5044718;28;20474;-69
2021/06/29 16:07:42;;;;;;;3.83;1.47;;;16.90;99.90;;;;;;5046060;28;20459;-69
2021/06/29 16:10:12;;;;;;;1.60;1.50;;;17.00;99.90;;;;;;5045789;28;20463;-68
2021/06/29 16:12:40;;;;;;;2.57;1.60;;;17.10;99.90;;;;;;5045962;28;20463;-69
2021/06/29 16:15:11;;;;;;;3.00;1.70;;;17.30;99.90;;;;;;5046870;28;20455;-69
2021/06/29 16:17:38;;;;;;;1.50;1.40;;;17.30;99.90;;;;;;5046638;28;20470;-68
2021/06/29 16:20:07;;;;;;;1.57;1.47;;;17.30;99.90;;;;;;5045870;28;20452;-69
2021/06/29 16:22:34;;;;;;;2.50;1.57;;;17.30;99.90;;;;;;5046224;28;20463;-68
2021/06/29 16:25:01;;;;;;;3.63;1.77;;;17.20;99.90;;;;;;5046835;28;20491;-69
2021/06/29 16:27:30;;;;;;;1.43;1.33;;;17.20;99.90;;;;;;5046621;28;20950;-69
2021/06/29 16:29:56;;;;;;;3.07;1.53;;;17.30;99.90;;;;;;5045453;28;20468;-69
2021/06/29 16:32:23;;;;;;;2.17;1.37;;;17.30;99.90;;;;;;5046019;28;20475;-68
2021/06/29 16:34:50;;;;;;;2.30;1.50;;;17.30;99.90;;;;;;5047103;28;20467;-69
2021/06/29 16:37:17;;;;;;;2.23;1.53;;;17.40;99.90;;;;;;5046782;28;20471;-69
2021/06/29 16:39:43;;;;;;;2.93;2.50;;;17.40;99.90;;;;;;5046129;28;20459;-69
2021/06/29 16:42:10;;;;;;;3.67;2.63;;;17.40;99.90;;;;;;5046387;28;20914;-68
2021/06/29 16:44:38;;;;;;;5.63;2.57;;;17.50;99.90;;;;;;5046591;28;20495;-69
2021/06/29 16:47:05;;;;;;;3.03;2.63;;;17.60;99.90;;;;;;5046776;28;20530;-69
2021/06/29 16:49:34;;;;;;;4.50;2.83;;;17.70;99.90;;;;;;5046427;28;20517;-69
2021/06/29 16:52:00;;;;;;;2.33;2.13;;;17.70;99.90;;;;;;5046206;28;20467;-68
2021/06/29 16:54:27;;;;;;;2.70;2.40;;;17.70;99.90;;;;;;5046646;28;20471;-69
2021/06/29 16:56:56;;;;;;;2.10;1.90;;;17.70;99.90;;;;;;5044144;28;20464;-68
2021/06/29 16:59:23;;;;;;;2.90;2.17;;;17.70;99.90;;;;;;5044356;28;20534;-68
2021/06/29 17:01:51;;;;;;;2.10;1.90;;;17.70;99.90;;;;;;5043617;28;20466;-69
2021/06/29 17:04:18;;;;;;;3.47;2.20;;;17.70;99.90;;;;;;5042806;28;20489;-70
2021/06/29 17:06:46;;;;;;;1.70;1.60;;;17.60;99.90;;;;;;5044641;28;20467;-69
2021/06/29 17:09:13;;;;;;;2.60;2.07;;;17.60;99.90;;;;;;5043086;28;20467;-69
2021/06/29 17:11:41;;;;;;;1.70;1.60;;;17.70;99.90;;;;;;5044259;28;21005;-68
2021/06/29 17:14:09;;;;;;;1.77;1.67;;;17.80;99.90;;;;;;5044233;28;20506;-68